Time;durP1;ratioP1;P1;durP2;ratioP2;P2;SDS_P1;SDS_P2;PMS_P1;PMS_P2;Temp;Humidity;BMP_temperature;BMP_pressure;BME280_temperature;BME280_humidity;BME280_pressure;Samples;Min_cycle;Max_cycle;Signal;HPM_P1;HPM_P2
2021/12/30 00:01:53;;;;;;;106.00;35.40;;;;;;;-1.36;97.78;99233.33;100999;1306;68013;-64
2021/12/30 00:04:42;;;;;;;94.00;32.10;;;;;;;-1.34;97.86;99225.98;100933;1315;71633;-64
2021/12/30 00:07:30;;;;;;;85.80;29.20;;;;;;;-1.36;98.19;99223.27;101108;1312;59375;-64
2021/12/30 00:10:17;;;;;;;91.70;32.40;;;;;;;-1.39;98.27;99223.73;100661;1315;60384;-64
2021/12/30 00:13:05;;;;;;;87.10;30.60;;;;;;;-1.43;97.96;99227.02;100789;1312;70893;-64
2021/12/30 00:15:53;;;;;;;97.40;32.50;;;;;;;-1.44;98.47;99232.48;101065;1313;66873;-64
2021/12/30 00:18:42;;;;;;;98.00;30.90;;;;;;;-1.41;98.57;99232.52;101195;1315;71667;-64
2021/12/30 00:21:30;;;;;;;104.70;35.30;;;;;;;-1.39;98.51;99231.88;101228;1313;59374;-64
2021/12/30 00:24:18;;;;;;;103.80;32.20;;;;;;;-1.32;98.49;99226.61;101109;1312;59851;-64
2021/12/30 00:27:06;;;;;;;103.50;34.10;;;;;;;-1.31;98.42;99219.95;101108;1313;71738;-63
2021/12/30 00:29:54;;;;;;;89.50;29.20;;;;;;;-1.29;98.37;99218.98;100914;1316;68314;-64
2021/12/30 00:32:42;;;;;;;82.00;29.40;;;;;;;-1.28;98.25;99215.27;101212;1312;70670;-64
2021/12/30 00:35:29;;;;;;;89.10;28.10;;;;;;;-1.26;98.16;99212.42;101284;1316;59407;-64
2021/12/30 00:38:18;;;;;;;82.40;30.00;;;;;;;-1.24;98.01;99224.36;100881;1312;59908;-64
2021/12/30 00:41:07;;;;;;;96.60;30.80;;;;;;;-1.28;97.69;99230.95;101118;1313;70436;-64
2021/12/30 00:43:54;;;;;;;107.60;35.80;;;;;;;-1.28;98.02;99238.76;100859;1315;68383;-64
2021/12/30 00:46:41;;;;;;;104.40;34.10;;;;;;;-1.24;97.87;99244.68;101044;1312;72963;-64
2021/12/30 00:49:30;;;;;;;106.70;33.70;;;;;;;-1.19;97.89;99242.07;100965;1314;59419;-65
2021/12/30 00:52:17;;;;;;;83.80;27.60;;;;;;;-1.17;97.68;99245.98;100763;1312;59336;-65
2021/12/30 00:55:05;;;;;;;82.50;29.40;;;;;;;-1.17;97.75;99255.20;101070;1312;71595;-64
2021/12/30 00:57:53;;;;;;;77.80;26.50;;;;;;;-1.20;97.73;99259.34;101062;1315;66941;-65
2021/12/30 01:00:44;;;;;;;85.60;28.50;;;;;;;-1.24;97.85;99261.21;101371;1312;71608;-66
2021/12/30 01:03:34;;;;;;;84.00;28.50;;;;;;;-1.26;97.90;99264.27;100860;1312;59194;-64
2021/12/30 01:06:21;;;;;;;85.70;29.20;;;;;;;-1.26;97.83;99271.60;101323;1311;59321;-64
2021/12/30 01:09:09;;;;;;;81.80;27.60;;;;;;;-1.27;98.03;99274.56;101001;1312;72106;-64
2021/12/30 01:11:57;;;;;;;75.30;27.60;;;;;;;-1.27;98.15;99271.80;100774;1312;65719;-64
2021/12/30 01:14:47;;;;;;;85.30;28.60;;;;;;;-1.24;98.31;99272.37;100768;1315;73365;-65
2021/12/30 01:17:48;;;;;;;66.90;25.50;;;;;;;-1.22;98.20;99280.46;101142;1312;59394;-64
2021/12/30 01:20:36;;;;;;;72.00;27.00;;;;;;;-1.23;98.18;99283.29;100779;1312;59546;-64
2021/12/30 01:23:26;;;;;;;81.50;26.80;;;;;;;-1.24;98.49;99274.29;100880;1312;72234;-64
2021/12/30 01:26:14;;;;;;;78.70;29.80;;;;;;;-1.21;98.17;99271.39;100793;1312;66665;-64
2021/12/30 01:29:02;;;;;;;86.50;29.00;;;;;;;-1.18;98.18;99263.41;100673;1315;72997;-64
2021/12/30 01:31:51;;;;;;;74.50;28.30;;;;;;;-1.12;98.26;99261.08;100899;1309;59324;-64
2021/12/30 01:34:41;;;;;;;74.40;28.70;;;;;;;-1.07;98.22;99256.50;101021;1308;59461;-64
2021/12/30 01:37:28;;;;;;;74.00;26.90;;;;;;;-1.01;98.42;99252.41;100756;1313;71749;-65
2021/12/30 01:40:18;;;;;;;70.60;26.30;;;;;;;-0.95;98.14;99247.80;101089;1310;66923;-64
2021/12/30 01:43:06;;;;;;;70.50;26.40;;;;;;;-0.91;98.10;99245.90;100149;1312;1003840;-64
2021/12/30 01:45:54;;;;;;;66.30;25.60;;;;;;;-0.88;97.84;99242.10;101090;1311;59307;-64
2021/12/30 01:48:43;;;;;;;65.10;24.90;;;;;;;-0.86;97.84;99240.80;100928;1310;59307;-64
2021/12/30 01:51:33;;;;;;;78.70;28.60;;;;;;;-0.87;97.28;99246.95;100824;1312;72005;-64
2021/12/30 01:54:24;;;;;;;87.00;31.20;;;;;;;-0.91;97.17;99245.55;100659;1312;68323;-64
2021/12/30 01:57:15;;;;;;;83.90;28.70;;;;;;;-0.90;97.34;99245.69;101147;1312;71872;-64
2021/12/30 02:00:09;;;;;;;84.50;29.60;;;;;;;-0.89;97.33;99258.71;100888;1312;59390;-64
2021/12/30 02:03:00;;;;;;;86.90;29.10;;;;;;;-0.87;97.24;99269.05;100699;1315;59425;-64
2021/12/30 02:05:51;;;;;;;80.20;28.80;;;;;;;-0.82;97.58;99272.19;100869;1312;70560;-64
2021/12/30 02:08:40;;;;;;;75.30;29.00;;;;;;;-0.76;97.75;99280.92;100157;1313;1003788;-64
2021/12/30 02:11:29;;;;;;;79.00;27.30;;;;;;;-0.72;97.54;99285.14;101017;1318;72365;-64
2021/12/30 02:14:18;;;;;;;70.60;24.70;;;;;;;-0.68;97.52;99279.75;101134;1312;59386;-64
2021/12/30 02:17:07;;;;;;;74.20;27.60;;;;;;;-0.69;96.97;99284.50;100909;1312;59440;-64
2021/12/30 02:20:03;;;;;;;76.70;28.40;;;;;;;-0.71;96.93;99287.19;100762;1307;70519;-64
2021/12/30 02:22:51;;;;;;;81.30;26.80;;;;;;;-0.70;97.00;99291.16;100935;1312;69675;-64
2021/12/30 02:25:41;;;;;;;82.20;31.00;;;;;;;-0.69;96.82;99293.02;100718;1312;72908;-64
2021/12/30 02:28:35;;;;;;;74.20;28.00;;;;;;;-0.67;96.86;99292.77;100596;1312;59370;-64
2021/12/30 02:31:29;;;;;;;77.20;27.10;;;;;;;-0.63;96.86;99291.19;100705;1312;61127;-64
2021/12/30 02:34:19;;;;;;;70.10;26.40;;;;;;;-0.60;96.72;99281.30;100907;1316;70551;-64
2021/12/30 02:37:10;;;;;;;69.50;26.30;;;;;;;-0.57;96.71;99283.11;100870;1313;66991;-64
2021/12/30 02:39:59;;;;;;;75.80;27.80;;;;;;;-0.58;96.54;99278.09;100616;1313;71746;-64
2021/12/30 02:42:48;;;;;;;69.40;26.20;;;;;;;-0.61;96.18;99277.69;100650;1312;59377;-64
2021/12/30 02:45:36;;;;;;;70.60;27.70;;;;;;;-0.61;96.52;99277.54;101060;1307;59438;-64
2021/12/30 02:48:32;;;;;;;73.50;29.30;;;;;;;-0.60;96.52;99278.18;101232;1313;69677;-64
2021/12/30 02:51:22;;;;;;;86.20;30.40;;;;;;;-0.57;96.70;99274.20;101469;1312;68304;-65
2021/12/30 02:54:11;;;;;;;72.60;28.90;;;;;;;-0.50;96.71;99274.78;100985;1315;72052;-64
2021/12/30 02:57:03;;;;;;;79.40;30.10;;;;;;;-0.46;96.49;99275.64;100956;1311;59274;-64
2021/12/30 02:59:52;;;;;;;73.50;26.70;;;;;;;-0.41;96.33;99268.59;100809;1312;60568;-64
2021/12/30 03:02:41;;;;;;;69.90;26.20;;;;;;;-0.38;95.95;99264.14;101125;1316;71468;-63
2021/12/30 03:05:32;;;;;;;57.50;23.50;;;;;;;-0.35;96.16;99264.16;101003;1309;67439;-64
2021/12/30 03:08:22;;;;;;;68.60;26.30;;;;;;;-0.35;96.04;99271.48;100860;1313;72892;-64
2021/12/30 03:11:11;;;;;;;68.60;25.90;;;;;;;-0.38;95.67;99268.82;101248;1308;59317;-65
2021/12/30 03:14:01;;;;;;;68.60;26.40;;;;;;;-0.40;95.75;99263.85;101136;1312;60913;-65
2021/12/30 03:16:50;;;;;;;61.90;24.50;;;;;;;-0.43;95.48;99259.30;101069;1313;71735;-65
2021/12/30 03:19:38;;;;;;;67.60;24.00;;;;;;;-0.47;95.46;99277.95;101025;1312;67193;-65
2021/12/30 03:22:27;;;;;;;72.50;27.90;;;;;;;-0.53;95.50;99283.23;101359;1312;72251;-65
2021/12/30 03:25:17;;;;;;;77.80;29.70;;;;;;;-0.56;95.78;99276.08;101214;1311;59277;-64
2021/12/30 03:28:05;;;;;;;73.50;27.60;;;;;;;-0.55;95.97;99281.10;101169;1312;61186;-64
2021/12/30 03:30:58;;;;;;;73.30;27.80;;;;;;;-0.55;95.83;99275.48;100784;1312;72590;-64
2021/12/30 03:33:49;;;;;;;72.20;27.30;;;;;;;-0.57;95.63;99278.21;100916;1312;68543;-63
2021/12/30 03:36:38;;;;;;;76.10;28.00;;;;;;;-0.59;95.91;99274.27;100850;1306;71675;-63
2021/12/30 03:39:27;;;;;;;68.50;26.10;;;;;;;-0.59;96.10;99273.42;100777;1309;59374;-63
2021/12/30 03:42:17;;;;;;;63.80;25.50;;;;;;;-0.60;96.04;99266.68;100809;1316;59889;-63
2021/12/30 03:45:09;;;;;;;64.60;26.10;;;;;;;-0.63;96.01;99262.96;100750;1310;72487;-63
2021/12/30 03:47:58;;;;;;;80.90;29.70;;;;;;;-0.65;96.24;99263.59;100872;1315;68206;-64
2021/12/30 03:50:48;;;;;;;83.90;27.80;;;;;;;-0.67;96.30;99265.07;101155;1309;72805;-65
2021/12/30 03:53:42;;;;;;;82.00;29.40;;;;;;;-0.71;96.38;99273.41;100781;1307;59384;-64
2021/12/30 03:56:32;;;;;;;84.90;31.40;;;;;;;-0.74;96.50;99279.12;100890;1315;59358;-64
2021/12/30 03:59:20;;;;;;;73.20;29.00;;;;;;;-0.73;96.83;99284.67;101320;1309;70948;-65
2021/12/30 04:02:10;;;;;;;64.10;25.70;;;;;;;-0.71;97.04;99286.51;100694;1310;68570;-65
2021/12/30 04:04:59;;;;;;;66.10;25.20;;;;;;;-0.67;97.26;99277.63;101041;1310;73259;-65
2021/12/30 04:07:48;;;;;;;56.70;22.10;;;;;;;-0.68;97.47;99276.08;101310;1309;59389;-65
2021/12/30 04:10:37;;;;;;;60.50;23.90;;;;;;;-0.71;97.54;99281.59;100912;1316;59659;-65
2021/12/30 04:13:27;;;;;;;60.40;23.70;;;;;;;-0.74;98.04;99286.98;101330;1311;72559;-63
2021/12/30 04:16:20;;;;;;;72.80;27.20;;;;;;;-0.75;98.63;99288.08;101215;1309;69403;-64
2021/12/30 04:19:09;;;;;;;59.40;22.20;;;;;;;-0.76;98.77;99286.38;100835;1310;71693;-64
2021/12/30 04:21:58;;;;;;;57.00;22.20;;;;;;;-0.79;99.27;99283.54;100199;1316;1003616;-64
2021/12/30 04:24:48;;;;;;;56.30;22.50;;;;;;;-0.80;99.19;99288.98;101327;1312;59610;-64
2021/12/30 04:27:38;;;;;;;61.60;24.50;;;;;;;-0.79;99.22;99296.60;101159;1309;72952;-65
2021/12/30 04:30:27;;;;;;;60.70;22.40;;;;;;;-0.76;99.33;99299.09;100641;1312;69380;-65
2021/12/30 04:33:15;;;;;;;64.60;24.60;;;;;;;-0.72;99.51;99301.52;101203;1310;71765;-65
2021/12/30 04:36:07;;;;;;;61.60;23.00;;;;;;;-0.65;99.48;99304.55;100945;1315;59300;-65
2021/12/30 04:38:56;;;;;;;57.50;23.50;;;;;;;-0.59;99.53;99299.55;101344;1313;60317;-66
2021/12/30 04:41:45;;;;;;;55.70;23.30;;;;;;;-0.54;99.46;99309.45;101039;1312;71423;-65
2021/12/30 04:44:34;;;;;;;54.20;21.00;;;;;;;-0.49;99.30;99302.80;101508;1310;68211;-65
2021/12/30 04:47:23;;;;;;;48.20;21.80;;;;;;;-0.47;99.23;99299.75;100915;1309;1003084;-65
2021/12/30 04:50:13;;;;;;;54.30;22.80;;;;;;;-0.45;99.14;99300.89;101263;1312;59321;-65
2021/12/30 04:53:03;;;;;;;55.20;22.40;;;;;;;-0.45;99.04;99294.95;101117;1309;59281;-64
2021/12/30 04:55:52;;;;;;;57.00;21.80;;;;;;;-0.45;99.08;99298.42;101180;1310;72833;-64
2021/12/30 04:58:41;;;;;;;51.60;22.50;;;;;;;-0.42;99.08;99296.39;101121;1309;66917;-64
2021/12/30 05:01:30;;;;;;;57.80;24.10;;;;;;;-0.40;99.06;99283.36;101630;1309;72987;-65
2021/12/30 05:04:19;;;;;;;53.50;21.80;;;;;;;-0.34;99.10;99282.08;100974;1313;59442;-65
2021/12/30 05:07:08;;;;;;;49.80;21.20;;;;;;;-0.27;99.03;99277.77;101902;1309;60836;-66
2021/12/30 05:09:57;;;;;;;42.50;18.00;;;;;;;-0.24;98.99;99287.20;101012;1312;73203;-65
2021/12/30 05:12:46;;;;;;;46.70;20.50;;;;;;;-0.24;98.87;99278.86;101191;1312;68680;-65
2021/12/30 05:15:37;;;;;;;53.70;22.30;;;;;;;-0.25;98.79;99279.21;101719;1309;73384;-65
2021/12/30 05:18:31;;;;;;;50.40;21.60;;;;;;;-0.27;98.93;99281.75;101442;1308;59495;-65
2021/12/30 05:21:19;;;;;;;58.00;24.10;;;;;;;-0.25;98.92;99275.70;100742;1313;60728;-64
2021/12/30 05:24:08;;;;;;;54.40;21.70;;;;;;;-0.23;99.01;99266.91;101586;1309;72945;-64
2021/12/30 05:26:56;;;;;;;48.50;21.40;;;;;;;-0.21;99.08;99261.24;101742;1309;67148;-65
2021/12/30 05:29:46;;;;;;;44.40;18.80;;;;;;;-0.20;99.12;99248.30;101277;1309;71608;-64
2021/12/30 05:32:35;;;;;;;53.90;21.70;;;;;;;-0.20;99.09;99249.35;101169;1311;59222;-64
2021/12/30 05:35:24;;;;;;;50.30;20.80;;;;;;;-0.23;99.14;99244.41;101638;1309;62155;-68
2021/12/30 05:38:16;;;;;;;44.50;19.30;;;;;;;-0.22;99.28;99257.29;101439;1310;72706;-67
2021/12/30 05:41:08;;;;;;;51.50;22.70;;;;;;;-0.21;99.31;99267.52;101704;1309;66791;-67
2021/12/30 05:43:58;;;;;;;53.60;22.60;;;;;;;-0.19;99.25;99259.06;101581;1309;73053;-68
2021/12/30 05:46:47;;;;;;;48.50;21.70;;;;;;;-0.13;99.38;99257.08;101435;1309;59372;-67
2021/12/30 05:49:36;;;;;;;46.00;20.60;;;;;;;-0.11;99.20;99260.08;101525;1310;61251;-68
2021/12/30 05:52:25;;;;;;;45.60;19.20;;;;;;;-0.10;99.04;99260.41;101450;1309;71003;-67
2021/12/30 05:55:15;;;;;;;48.50;20.20;;;;;;;-0.11;99.12;99266.03;100691;1315;68510;-67
2021/12/30 05:58:04;;;;;;;47.20;19.60;;;;;;;-0.16;99.32;99265.38;101161;1309;73647;-67
2021/12/30 06:00:52;;;;;;;43.80;18.90;;;;;;;-0.18;99.50;99273.11;101286;1309;59260;-68
2021/12/30 06:03:41;;;;;;;49.20;19.50;;;;;;;-0.20;99.69;99272.54;101640;1309;60541;-66
2021/12/30 06:06:30;;;;;;;44.50;18.40;;;;;;;-0.20;99.91;99281.77;101338;1309;72196;-67
2021/12/30 06:09:25;;;;;;;48.50;21.70;;;;;;;-0.22;99.95;99285.02;101182;1307;67294;-67
2021/12/30 06:12:13;;;;;;;50.90;20.10;;;;;;;-0.24;100.00;99299.23;101166;1310;71899;-67
2021/12/30 06:15:03;;;;;;;39.70;17.70;;;;;;;-0.24;100.00;99312.29;101203;1310;59207;-67
2021/12/30 06:17:52;;;;;;;41.30;18.30;;;;;;;-0.21;100.00;99313.20;101258;1313;60672;-67
2021/12/30 06:20:41;;;;;;;38.30;16.90;;;;;;;-0.19;100.00;99326.54;100871;1309;73421;-67
2021/12/30 06:23:29;;;;;;;41.30;17.60;;;;;;;-0.17;100.00;99337.10;101080;1307;68555;-67
2021/12/30 06:26:19;;;;;;;48.80;20.50;;;;;;;-0.17;100.00;99332.39;100873;1310;71806;-67
2021/12/30 06:29:09;;;;;;;51.30;21.50;;;;;;;-0.16;100.00;99315.42;101093;1307;59901;-67
2021/12/30 06:31:57;;;;;;;37.90;17.10;;;;;;;-0.11;100.00;99315.55;100909;1314;60909;-67
2021/12/30 06:34:46;;;;;;;44.70;19.60;;;;;;;-0.07;100.00;99307.54;101499;1309;71831;-67
2021/12/30 06:37:40;;;;;;;43.50;18.80;;;;;;;-0.03;100.00;99307.85;101389;1316;68419;-67
2021/12/30 06:40:30;;;;;;;37.70;19.50;;;;;;;-0.01;99.99;99311.05;101426;1310;72108;-66
2021/12/30 06:43:19;;;;;;;44.30;18.20;;;;;;;0.00;99.90;99315.74;101294;1311;59337;-66
2021/12/30 06:46:10;;;;;;;51.20;19.80;;;;;;;-0.01;99.99;99319.45;101411;1310;59926;-67
2021/12/30 06:49:00;;;;;;;47.10;21.20;;;;;;;-0.01;99.90;99325.38;101423;1317;71282;-67
2021/12/30 06:51:51;;;;;;;44.10;18.70;;;;;;;0.01;99.98;99320.41;101053;1312;68016;-67
2021/12/30 06:54:40;;;;;;;41.80;19.80;;;;;;;0.04;99.98;99329.01;100979;1312;73319;-67
2021/12/30 06:57:36;;;;;;;42.00;18.00;;;;;;;0.06;100.00;99329.62;100939;1309;59380;-67
2021/12/30 07:00:25;;;;;;;36.90;16.80;;;;;;;0.07;99.99;99334.07;101230;1317;59863;-66
2021/12/30 07:03:15;;;;;;;50.90;22.10;;;;;;;0.10;99.95;99339.23;100737;1310;1003121;-67
2021/12/30 07:06:04;;;;;;;49.20;22.40;;;;;;;0.12;99.96;99345.21;101110;1309;67441;-66
2021/12/30 07:08:54;;;;;;;48.00;20.70;;;;;;;0.15;99.79;99345.94;101592;1309;70681;-66
2021/12/30 07:11:43;;;;;;;44.90;19.00;;;;;;;0.18;99.74;99343.90;101211;1309;59374;-67
2021/12/30 07:14:32;;;;;;;38.00;18.10;;;;;;;0.23;99.72;99344.36;100954;1310;59329;-67
2021/12/30 07:17:29;;;;;;;36.60;16.60;;;;;;;0.26;99.55;99340.19;101319;1309;71622;-67
2021/12/30 07:20:19;;;;;;;41.90;19.70;;;;;;;0.25;99.25;99335.02;101702;1307;66989;-68
2021/12/30 07:23:18;;;;;;;44.30;21.10;;;;;;;0.25;99.36;99341.63;101290;1310;71871;-67
2021/12/30 07:26:07;;;;;;;47.50;21.00;;;;;;;0.30;99.38;99355.20;101045;1312;59345;-67
2021/12/30 07:28:57;;;;;;;49.70;22.00;;;;;;;0.35;99.36;99353.73;101201;1310;59349;-68
2021/12/30 07:31:48;;;;;;;47.90;22.10;;;;;;;0.38;98.90;99359.55;101573;1309;71604;-66
2021/12/30 07:34:38;;;;;;;46.40;20.90;;;;;;;0.38;98.87;99358.68;101451;1309;65491;-66
2021/12/30 07:37:28;;;;;;;48.60;22.60;;;;;;;0.37;98.83;99352.23;100954;1310;72797;-67
2021/12/30 07:40:21;;;;;;;55.00;24.30;;;;;;;0.38;98.80;99353.95;101275;1309;59319;-67
2021/12/30 07:43:11;;;;;;;54.20;24.60;;;;;;;0.36;98.85;99347.59;101052;1313;60521;-67
2021/12/30 07:46:01;;;;;;;51.90;23.40;;;;;;;0.38;98.76;99346.95;101323;1309;71252;-67
2021/12/30 07:49:11;;;;;;;54.50;24.60;;;;;;;0.40;98.71;99344.59;101321;1310;69400;-66
2021/12/30 07:52:00;;;;;;;51.00;23.00;;;;;;;0.44;98.61;99343.91;101059;1312;73441;-67
2021/12/30 07:54:59;;;;;;;46.90;21.70;;;;;;;0.46;98.55;99344.13;100901;1309;59364;-67
2021/12/30 07:57:50;;;;;;;49.40;21.60;;;;;;;0.48;98.65;99337.56;101106;1309;60601;-67
2021/12/30 08:00:39;;;;;;;44.30;20.40;;;;;;;0.49;98.58;99333.18;100934;1317;71488;-67
2021/12/30 08:03:29;;;;;;;48.40;23.50;;;;;;;0.49;98.73;99327.76;101450;1310;66571;-66
2021/12/30 08:06:18;;;;;;;51.70;22.60;;;;;;;0.50;98.88;99328.77;101390;1308;72645;-67
2021/12/30 08:09:07;;;;;;;57.20;24.90;;;;;;;0.49;98.93;99328.45;100198;1310;1002709;-67
2021/12/30 08:11:56;;;;;;;57.90;26.00;;;;;;;0.49;98.86;99326.39;101286;1312;61165;-66
2021/12/30 08:14:45;;;;;;;51.40;23.70;;;;;;;0.49;98.93;99319.40;100845;1312;71440;-67
2021/12/30 08:17:35;;;;;;;50.40;22.60;;;;;;;0.47;98.93;99315.28;100908;1316;68100;-67
2021/12/30 08:20:27;;;;;;;53.00;23.10;;;;;;;0.48;98.96;99314.02;101283;1310;72147;-67
2021/12/30 08:23:16;;;;;;;52.20;21.80;;;;;;;0.51;99.13;99308.98;100252;1312;1002926;-67
2021/12/30 08:26:12;;;;;;;56.60;22.10;;;;;;;0.57;99.25;99310.65;101391;1309;59441;-67
2021/12/30 08:29:02;;;;;;;50.20;23.90;;;;;;;0.63;99.14;99311.02;101148;1313;72642;-67
2021/12/30 08:31:51;;;;;;;48.30;22.10;;;;;;;0.72;98.89;99307.64;99854;1309;1003706;-66
2021/12/30 08:34:41;;;;;;;51.60;22.60;;;;;;;0.79;98.68;99306.77;101111;1313;73250;-66
2021/12/30 08:37:30;;;;;;;47.90;19.40;;;;;;;0.83;98.47;99308.84;101128;1315;59264;-68
2021/12/30 08:40:22;;;;;;;54.10;22.90;;;;;;;0.88;98.59;99312.60;101406;1309;59377;-67
2021/12/30 08:43:13;;;;;;;48.50;21.10;;;;;;;0.91;98.18;99307.59;101000;1310;71292;-66
2021/12/30 08:46:02;;;;;;;60.00;25.90;;;;;;;0.92;98.05;99304.89;101336;1310;68195;-66
2021/12/30 08:48:56;;;;;;;66.10;26.00;;;;;;;0.95;97.77;99300.01;101051;1313;72972;-66
2021/12/30 08:51:46;;;;;;;66.70;26.80;;;;;;;0.97;97.67;99291.01;101852;1309;59280;-66
2021/12/30 08:54:37;;;;;;;51.60;21.60;;;;;;;0.97;97.21;99293.98;101120;1308;60013;-66
2021/12/30 08:57:26;;;;;;;57.40;24.00;;;;;;;0.95;97.19;99286.61;101389;1316;72588;-66
2021/12/30 09:00:28;;;;;;;61.30;23.60;;;;;;;0.94;97.40;99274.55;100807;1310;68345;-66
2021/12/30 09:03:17;;;;;;;69.50;26.90;;;;;;;0.99;97.43;99275.23;101043;1310;74390;-66
2021/12/30 09:06:06;;;;;;;70.30;26.30;;;;;;;1.05;97.32;99271.05;101650;1310;59441;-67
2021/12/30 09:08:55;;;;;;;54.00;22.60;;;;;;;1.16;97.04;99270.15;101884;1316;59322;-66
2021/12/30 09:11:45;;;;;;;56.00;23.10;;;;;;;1.26;96.59;99266.83;100963;1312;1003632;-66
2021/12/30 09:14:34;;;;;;;61.40;26.10;;;;;;;1.40;95.98;99257.52;101535;1312;67211;-66
2021/12/30 09:17:23;;;;;;;58.50;24.30;;;;;;;1.49;95.73;99254.78;101534;1316;73158;-67
2021/12/30 09:20:14;;;;;;;65.30;27.20;;;;;;;1.53;95.04;99261.60;101711;1316;59318;-68
2021/12/30 09:23:04;;;;;;;52.80;22.60;;;;;;;1.56;95.20;99257.38;101432;1312;59626;-67
2021/12/30 09:25:55;;;;;;;66.50;26.30;;;;;;;1.57;94.93;99258.05;101642;1315;72566;-67
2021/12/30 09:28:46;;;;;;;55.50;22.30;;;;;;;1.54;94.54;99260.63;101385;1310;66951;-67
2021/12/30 09:31:44;;;;;;;64.60;27.10;;;;;;;1.52;94.84;99259.17;101475;1312;70529;-66
2021/12/30 09:34:33;;;;;;;59.80;25.20;;;;;;;1.52;94.94;99260.59;101271;1313;59224;-67
2021/12/30 09:37:22;;;;;;;61.20;24.70;;;;;;;1.57;95.06;99251.23;101632;1310;60966;-67
2021/12/30 09:40:15;;;;;;;62.50;26.70;;;;;;;1.56;94.96;99252.12;101381;1310;71147;-67
2021/12/30 09:43:05;;;;;;;64.10;26.30;;;;;;;1.55;94.99;99253.98;101091;1316;68176;-67
2021/12/30 09:45:54;;;;;;;63.70;28.00;;;;;;;1.59;95.16;99257.10;101330;1313;71960;-67
2021/12/30 09:48:49;;;;;;;61.30;25.90;;;;;;;1.62;94.96;99259.02;101207;1315;59312;-67
2021/12/30 09:51:43;;;;;;;56.70;23.50;;;;;;;1.67;94.90;99271.35;101326;1313;59764;-66
2021/12/30 09:54:35;;;;;;;70.90;26.00;;;;;;;1.71;94.92;99267.95;101275;1316;71430;-67
2021/12/30 09:57:25;;;;;;;60.70;25.30;;;;;;;1.77;94.51;99261.16;101554;1309;68899;-66
2021/12/30 10:00:18;;;;;;;64.20;26.90;;;;;;;1.88;94.49;99247.80;101494;1314;72819;-67
2021/12/30 10:03:12;;;;;;;62.50;26.10;;;;;;;1.99;94.03;99242.67;101510;1316;59324;-67
2021/12/30 10:06:12;;;;;;;60.90;25.30;;;;;;;2.02;93.72;99240.89;101323;1310;59306;-66
2021/12/30 10:09:11;;;;;;;45.00;19.10;;;;;;;2.09;93.61;99235.64;101530;1313;72487;-67
2021/12/30 10:12:04;;;;;;;61.10;24.10;;;;;;;2.06;93.43;99240.70;101629;1315;67987;-67
2021/12/30 10:15:45;;;;;;;65.00;25.90;;;;;;;2.00;93.76;99248.04;101604;1310;73061;-67
2021/12/30 10:19:03;;;;;;;62.40;25.60;;;;;;;2.02;93.96;99254.89;101631;1309;59375;-67
2021/12/30 10:22:10;;;;;;;61.50;25.40;;;;;;;2.01;94.06;99256.69;101088;1312;60949;-66
2021/12/30 10:24:59;;;;;;;56.70;21.90;;;;;;;2.01;93.98;99262.11;101137;1316;72209;-68
2021/12/30 10:27:49;;;;;;;67.60;24.20;;;;;;;1.98;94.32;99256.00;101467;1306;66996;-67
2021/12/30 10:30:44;;;;;;;56.90;21.50;;;;;;;2.00;94.49;99244.32;101328;1312;73225;-67
2021/12/30 10:33:45;;;;;;;54.90;21.10;;;;;;;1.99;94.48;99251.20;101208;1310;59252;-67
2021/12/30 10:36:49;;;;;;;61.70;22.90;;;;;;;1.94;94.84;99246.77;100880;1312;59506;-66
2021/12/30 10:39:42;;;;;;;59.30;23.80;;;;;;;1.88;95.31;99239.94;100836;1315;72822;-66
2021/12/30 10:42:33;;;;;;;50.80;19.70;;;;;;;1.86;95.66;99236.70;100810;1315;67950;-66
2021/12/30 10:45:22;;;;;;;55.90;21.80;;;;;;;1.81;96.28;99231.37;101314;1313;73162;-68
2021/12/30 10:48:13;;;;;;;57.60;23.40;;;;;;;1.80;96.73;99223.40;101609;1310;59368;-67
2021/12/30 10:51:24;;;;;;;65.80;24.10;;;;;;;1.82;96.94;99218.05;101728;1316;60576;-66
2021/12/30 10:54:26;;;;;;;50.70;20.50;;;;;;;1.87;96.97;99212.34;101237;1312;72757;-66
2021/12/30 10:57:17;;;;;;;49.40;20.30;;;;;;;1.93;97.11;99218.49;101221;1315;67190;-67
2021/12/30 11:00:30;;;;;;;50.40;20.20;;;;;;;1.97;97.29;99224.92;101265;1309;71662;-68
2021/12/30 11:03:27;;;;;;;50.80;20.00;;;;;;;1.97;97.62;99219.17;101181;1310;59329;-66
2021/12/30 11:06:23;;;;;;;47.90;19.20;;;;;;;2.01;97.91;99214.02;101129;1312;60361;-66
2021/12/30 11:09:21;;;;;;;41.80;17.20;;;;;;;2.04;98.14;99213.85;101669;1309;72323;-67
2021/12/30 11:12:26;;;;;;;46.50;19.00;;;;;;;2.10;98.18;99215.46;101208;1310;66524;-67
2021/12/30 11:15:28;;;;;;;51.10;19.30;;;;;;;2.19;98.14;99218.94;101176;1313;72674;-66
2021/12/30 11:18:22;;;;;;;40.30;18.00;;;;;;;2.29;97.97;99212.28;101124;1316;59320;-67
2021/12/30 11:21:44;;;;;;;42.90;18.90;;;;;;;2.35;97.96;99212.80;101316;1309;59418;-66
2021/12/30 11:24:50;;;;;;;44.20;18.20;;;;;;;2.42;97.78;99212.94;101286;1309;71387;-66
2021/12/30 11:27:46;;;;;;;39.10;17.30;;;;;;;2.41;97.71;99208.80;101265;1310;68265;-66
2021/12/30 11:30:37;;;;;;;42.90;17.90;;;;;;;2.42;97.78;99210.52;101383;1310;72014;-66
2021/12/30 11:33:28;;;;;;;47.90;18.80;;;;;;;2.45;97.77;99213.15;101632;1310;59341;-66
2021/12/30 11:36:28;;;;;;;44.20;17.90;;;;;;;2.48;97.83;99207.52;101253;1313;61009;-66
2021/12/30 11:49:24;;;;;;;44.80;18.20;;;;;;;2.54;97.83;99208.92;101249;1310;74329;-66
2021/12/30 11:52:50;;;;;;;45.10;17.90;;;;;;;2.54;97.96;99200.19;101640;1310;59396;-66
2021/12/30 11:56:25;;;;;;;40.80;17.40;;;;;;;2.57;98.24;99201.77;101546;1312;59466;-66
2021/12/30 11:59:54;;;;;;;29.20;12.40;;;;;;;2.59;98.74;99191.30;101569;1309;71954;-67
2021/12/30 12:02:51;;;;;;;30.50;13.40;;;;;;;2.59;98.89;99191.66;101074;1305;66243;-66
2021/12/30 12:06:59;;;;;;;35.30;15.80;;;;;;;2.56;99.57;99196.36;100613;1318;74240;-66
2021/12/30 12:09:53;;;;;;;34.10;15.00;;;;;;;2.58;99.76;99196.42;101066;1321;59319;-66
2021/12/30 12:13:35;;;;;;;29.10;13.10;;;;;;;2.61;99.59;99192.40;100745;1315;59379;-66
2021/12/30 12:16:56;;;;;;;31.40;14.40;;;;;;;2.64;99.72;99186.42;100883;1318;71117;-65
2021/12/30 12:19:59;;;;;;;26.50;11.90;;;;;;;2.69;99.69;99190.19;101133;1319;67937;-66
2021/12/30 12:22:50;;;;;;;23.60;10.60;;;;;;;2.71;99.35;99197.07;100689;1318;72989;-68
2021/12/30 12:25:40;;;;;;;29.00;12.80;;;;;;;2.72;99.21;99200.70;101073;1315;59304;-66
2021/12/30 12:28:30;;;;;;;26.20;11.30;;;;;;;2.74;99.11;99198.65;100595;1315;59448;-66
2021/12/30 12:32:11;;;;;;;26.00;12.10;;;;;;;2.71;99.08;99199.34;100677;1320;70484;-66
2021/12/30 12:35:05;;;;;;;26.30;11.60;;;;;;;2.65;99.40;99196.34;100713;1311;65872;-67
2021/12/30 12:38:06;;;;;;;23.40;9.50;;;;;;;2.62;99.49;99180.82;100562;1315;73097;-67
2021/12/30 12:41:02;;;;;;;21.70;11.30;;;;;;;2.59;99.65;99170.30;100990;1312;59478;-67
2021/12/30 12:44:07;;;;;;;22.40;10.40;;;;;;;2.57;99.51;99177.06;100781;1312;59490;-67
2021/12/30 12:46:59;;;;;;;22.30;10.20;;;;;;;2.57;99.45;99174.98;100651;1312;73376;-67
2021/12/30 12:49:49;;;;;;;20.60;9.60;;;;;;;2.53;99.39;99177.45;101356;1312;66669;-66
2021/12/30 12:52:48;;;;;;;22.40;11.00;;;;;;;2.51;99.41;99177.38;100976;1314;71746;-66
2021/12/30 12:55:37;;;;;;;20.60;9.30;;;;;;;2.52;99.34;99186.48;101082;1301;59380;-66
2021/12/30 12:58:36;;;;;;;21.50;10.40;;;;;;;2.50;99.56;99184.63;101363;1309;59508;-65
2021/12/30 13:01:29;;;;;;;18.00;8.90;;;;;;;2.47;99.77;99181.64;100981;1309;71096;-65
2021/12/30 13:04:19;;;;;;;27.10;10.90;;;;;;;2.46;99.81;99181.91;101242;1310;66873;-66
2021/12/30 13:07:22;;;;;;;21.30;9.40;;;;;;;2.43;99.94;99175.94;100984;1309;71638;-63
2021/12/30 13:10:21;;;;;;;21.60;10.70;;;;;;;2.42;100.00;99172.70;101211;1309;59251;-66
2021/12/30 13:13:11;;;;;;;24.30;9.60;;;;;;;2.40;100.00;99156.70;101130;1312;60284;-63
2021/12/30 13:16:05;;;;;;;23.30;10.10;;;;;;;2.38;100.00;99156.79;101155;1309;72073;-65
2021/12/30 13:19:04;;;;;;;22.50;11.10;;;;;;;2.37;100.00;99161.41;101307;1309;68441;-69